createdAt,value
2017-06-26T00:01:23.654Z,81.60
2017-06-26T00:03:51.969Z,80.80
2017-06-26T00:06:19.443Z,80.70
2017-06-26T00:08:47.049Z,81.40
2017-06-26T00:11:14.657Z,82.00
2017-06-26T00:13:42.181Z,81.90
2017-06-26T00:16:10.466Z,81.90
2017-06-26T00:18:37.964Z,81.90
2017-06-26T00:21:05.454Z,82.00
2017-06-26T00:23:32.939Z,82.70
2017-06-26T00:26:00.446Z,82.50
2017-06-26T00:28:27.937Z,82.00
2017-06-26T00:30:55.463Z,81.20
2017-06-26T00:33:22.946Z,81.00
2017-06-26T00:35:50.441Z,81.30
2017-06-26T00:38:17.945Z,81.30
2017-06-26T00:40:45.432Z,82.10
2017-06-26T00:43:13.692Z,81.20
2017-06-26T00:45:41.280Z,81.60
2017-06-26T00:48:09.533Z,82.80
2017-06-26T00:50:37.049Z,82.70
2017-06-26T00:53:04.553Z,83.20
2017-06-26T00:55:32.130Z,83.70
2017-06-26T00:58:00.421Z,85.00
2017-06-26T01:00:28.698Z,84.80
2017-06-26T01:02:56.994Z,84.80
2017-06-26T01:05:24.508Z,84.70
2017-06-26T01:07:52.021Z,84.40
2017-06-26T01:10:19.519Z,84.00
2017-06-26T01:12:47.100Z,84.00
2017-06-26T01:15:15.364Z,83.70
2017-06-26T01:17:42.862Z,83.70
2017-06-26T01:20:10.354Z,83.40
2017-06-26T01:22:37.847Z,83.50
2017-06-26T01:25:06.729Z,84.40
2017-06-26T01:27:34.224Z,83.70
2017-06-26T01:30:01.717Z,83.50
2017-06-26T01:32:29.238Z,83.90
2017-06-26T01:34:56.717Z,84.20
2017-06-26T01:37:24.247Z,83.40
2017-06-26T01:39:52.519Z,83.20
2017-06-26T01:42:20.006Z,83.90
2017-06-26T01:44:47.522Z,83.80
2017-06-26T01:47:15.010Z,84.40
2017-06-26T01:49:42.559Z,84.80
2017-06-26T01:52:10.158Z,85.00
2017-06-26T01:54:37.659Z,85.10
2017-06-26T01:57:05.192Z,85.10
2017-06-26T01:59:32.799Z,85.50
2017-06-26T02:02:01.087Z,86.20
2017-06-26T02:04:28.567Z,86.10
2017-06-26T02:06:56.101Z,86.30
2017-06-26T02:09:23.591Z,86.60
2017-06-26T02:11:51.079Z,86.90
2017-06-26T02:14:18.576Z,87.40
2017-06-26T02:16:46.070Z,87.70
2017-06-26T02:19:13.557Z,87.90
2017-06-26T02:21:41.074Z,87.80
2017-06-26T02:24:08.588Z,88.10
2017-06-26T02:26:36.062Z,88.10
2017-06-26T02:29:03.563Z,88.60
2017-06-26T02:31:31.090Z,88.80
2017-06-26T02:33:58.577Z,89.00
2017-06-26T02:36:26.095Z,89.20
2017-06-26T02:38:54.353Z,89.30
2017-06-26T02:41:22.608Z,89.40
2017-06-26T02:43:50.090Z,90.00
2017-06-26T02:46:18.355Z,89.80
2017-06-26T02:48:45.897Z,89.50
2017-06-26T02:51:14.039Z,89.20
2017-06-26T02:53:41.522Z,89.00
2017-06-26T02:56:09.053Z,88.60
2017-06-26T02:58:36.551Z,88.50
2017-06-26T03:01:04.822Z,88.20
2017-06-26T03:03:32.334Z,88.70
2017-06-26T03:05:59.825Z,87.90
2017-06-26T03:08:27.323Z,87.00
2017-06-26T03:10:54.807Z,86.50
2017-06-26T03:13:22.306Z,86.60
2017-06-26T03:15:49.822Z,86.70
2017-06-26T03:18:17.383Z,86.50
2017-06-26T03:20:44.913Z,86.70
2017-06-26T03:23:12.418Z,86.50
2017-06-26T03:25:39.898Z,86.40
2017-06-26T03:28:07.378Z,85.90
2017-06-26T03:30:34.915Z,85.50
2017-06-26T03:33:02.451Z,85.40
2017-06-26T03:35:30.003Z,84.70
2017-06-26T03:37:57.493Z,84.50
2017-06-26T03:40:24.996Z,84.30
2017-06-26T03:42:53.268Z,84.00
2017-06-26T03:45:20.966Z,84.00
2017-06-26T03:47:48.456Z,84.10
2017-06-26T03:50:15.974Z,83.30
2017-06-26T03:52:43.460Z,82.80
2017-06-26T03:55:10.958Z,82.20
2017-06-26T03:57:38.481Z,82.00
2017-06-26T04:00:07.152Z,81.60
2017-06-26T04:02:35.463Z,82.10
2017-06-26T04:05:02.957Z,81.20
2017-06-26T04:07:31.213Z,80.70
2017-06-26T04:09:58.719Z,80.60
2017-06-26T04:12:26.236Z,80.00
2017-06-26T04:14:53.778Z,79.50
2017-06-26T04:17:22.059Z,79.10
2017-06-26T04:19:49.574Z,79.10
2017-06-26T04:22:17.073Z,78.70
2017-06-26T04:24:44.555Z,78.60
2017-06-26T04:27:12.066Z,78.60
2017-06-26T04:29:39.572Z,77.90
2017-06-26T04:32:07.822Z,77.30
2017-06-26T04:34:35.325Z,76.90
2017-06-26T04:37:03.861Z,76.70
2017-06-26T04:39:31.343Z,76.70
2017-06-26T04:41:58.853Z,76.80
2017-06-26T04:44:26.359Z,75.40
2017-06-26T04:46:53.850Z,75.20
2017-06-26T04:49:21.334Z,74.90
2017-06-26T04:51:48.864Z,74.80
2017-06-26T04:54:16.346Z,74.40
2017-06-26T04:56:43.818Z,74.20
2017-06-26T04:59:11.338Z,74.20
2017-06-26T05:01:38.813Z,74.10
2017-06-26T05:04:06.307Z,73.70
2017-06-26T05:06:33.787Z,72.90
2017-06-26T05:09:01.307Z,73.00
2017-06-26T05:11:29.836Z,73.00
2017-06-26T05:13:57.366Z,72.30
2017-06-26T05:16:24.855Z,72.10
2017-06-26T05:18:52.377Z,72.90
2017-06-26T05:21:19.885Z,72.60
2017-06-26T05:23:47.369Z,73.20
2017-06-26T05:26:14.861Z,73.90
2017-06-26T05:28:42.380Z,73.60
2017-06-26T05:31:09.870Z,74.40
2017-06-26T05:33:37.367Z,74.70
2017-06-26T05:36:05.650Z,73.90
2017-06-26T05:38:33.894Z,73.20
2017-06-26T05:41:01.399Z,73.20
2017-06-26T05:43:28.891Z,71.90
2017-06-26T05:45:56.391Z,71.30
2017-06-26T05:48:24.695Z,69.50
2017-06-26T05:50:52.178Z,69.50
2017-06-26T05:53:19.665Z,69.00
2017-06-26T05:55:47.163Z,67.50
2017-06-26T05:58:14.680Z,67.80
2017-06-26T06:00:42.214Z,67.70
2017-06-26T06:03:09.705Z,67.40
2017-06-26T06:05:37.233Z,67.30
2017-06-26T06:08:04.748Z,67.50
2017-06-26T06:10:33.025Z,67.60
2017-06-26T06:13:01.304Z,68.30
2017-06-26T06:15:29.652Z,66.70
2017-06-26T06:17:57.132Z,66.70
2017-06-26T06:20:25.383Z,65.40
2017-06-26T06:22:52.911Z,65.40
2017-06-26T06:25:20.393Z,63.90
2017-06-26T06:27:47.897Z,62.40
2017-06-26T06:30:16.173Z,62.30
2017-06-26T06:32:44.432Z,61.40
2017-06-26T06:35:11.957Z,61.40
2017-06-26T06:37:39.466Z,61.20
2017-06-26T06:40:07.727Z,58.90
2017-06-26T06:42:35.223Z,58.80
2017-06-26T06:45:02.726Z,58.80
2017-06-26T06:47:30.229Z,58.60
2017-06-26T06:49:57.727Z,57.50
2017-06-26T06:52:25.477Z,57.90
2017-06-26T06:54:53.022Z,57.60
2017-06-26T06:57:20.541Z,57.60
2017-06-26T06:59:48.066Z,57.40
2017-06-26T07:02:15.579Z,57.00
2017-06-26T07:04:44.168Z,55.30
2017-06-26T07:07:11.705Z,55.30
2017-06-26T07:09:39.218Z,56.20
2017-06-26T07:12:06.747Z,55.90
2017-06-26T07:14:34.274Z,55.30
2017-06-26T07:17:01.798Z,54.30
2017-06-26T07:19:29.320Z,53.80
2017-06-26T07:21:57.600Z,55.30
2017-06-26T07:24:25.834Z,55.00
2017-06-26T07:26:53.368Z,54.90
2017-06-26T07:29:20.860Z,54.90
2017-06-26T07:31:48.450Z,53.80
2017-06-26T07:34:16.027Z,53.70
2017-06-26T07:36:43.658Z,53.60
2017-06-26T07:39:11.943Z,53.70
2017-06-26T07:41:40.198Z,53.00
2017-06-26T07:44:07.716Z,52.90
2017-06-26T07:46:35.238Z,52.00
2017-06-26T07:49:03.541Z,52.30
2017-06-26T07:51:31.033Z,52.30
2017-06-26T07:53:58.553Z,52.10
2017-06-26T07:56:26.067Z,52.20
2017-06-26T07:58:53.660Z,51.80
2017-06-26T08:01:21.940Z,50.90
2017-06-26T08:03:49.452Z,50.90
2017-06-26T08:06:16.953Z,49.80
2017-06-26T08:08:45.253Z,50.70
2017-06-26T08:11:12.764Z,50.70
2017-06-26T08:13:40.378Z,51.30
2017-06-26T08:16:07.931Z,51.00
2017-06-26T08:18:35.420Z,50.40
2017-06-26T08:21:02.935Z,49.30
2017-06-26T08:23:30.459Z,48.90
2017-06-26T08:25:57.951Z,48.30
2017-06-26T08:28:25.440Z,49.20
2017-06-26T08:30:52.962Z,49.10
2017-06-26T08:33:20.487Z,48.80
2017-06-26T08:35:47.995Z,49.10
2017-06-26T08:38:15.531Z,50.50
2017-06-26T08:40:43.805Z,49.20
2017-06-26T08:43:12.078Z,49.60
2017-06-26T08:45:39.586Z,49.60
2017-06-26T08:48:07.102Z,50.20
2017-06-26T08:50:35.346Z,50.20
2017-06-26T08:53:02.887Z,49.60
2017-06-26T08:55:30.368Z,49.10
2017-06-26T08:57:57.876Z,48.20
2017-06-26T09:00:25.400Z,47.80
2017-06-26T09:02:52.904Z,45.90
2017-06-26T09:05:20.393Z,46.80
2017-06-26T09:07:47.926Z,47.60
2017-06-26T09:10:15.409Z,49.70
2017-06-26T09:12:42.908Z,51.10
2017-06-26T09:15:11.188Z,53.20
2017-06-26T09:17:38.685Z,53.20
2017-06-26T09:20:06.218Z,54.10
2017-06-26T09:22:33.727Z,54.70
2017-06-26T09:25:01.254Z,55.60
2017-06-26T09:27:28.779Z,55.60
2017-06-26T09:29:57.055Z,56.50
2017-06-26T09:32:25.351Z,56.30
2017-06-26T09:34:52.863Z,56.20
2017-06-26T09:37:20.489Z,56.90
2017-06-26T09:39:48.000Z,56.50
2017-06-26T09:42:15.510Z,55.80
2017-06-26T09:44:43.572Z,56.00
2017-06-26T09:47:11.059Z,56.10
2017-06-26T09:49:38.598Z,55.50
2017-06-26T09:52:06.088Z,56.50
2017-06-26T09:54:34.161Z,57.30
2017-06-26T09:57:01.685Z,57.60
2017-06-26T09:59:29.254Z,57.60
2017-06-26T10:01:56.774Z,58.70
2017-06-26T10:04:24.272Z,58.60
2017-06-26T10:06:51.772Z,59.00
2017-06-26T10:09:19.293Z,59.30
2017-06-26T10:11:46.851Z,59.50
2017-06-26T10:14:14.365Z,59.90
2017-06-26T10:16:42.692Z,60.70
2017-06-26T10:19:10.213Z,60.70
2017-06-26T10:21:38.471Z,63.20
2017-06-26T10:24:06.772Z,63.70
2017-06-26T10:26:34.329Z,63.60
2017-06-26T10:29:01.839Z,64.20
2017-06-26T10:31:29.355Z,64.80
2017-06-26T10:33:56.883Z,65.70
2017-06-26T10:36:24.420Z,66.50
2017-06-26T10:38:52.004Z,66.70
2017-06-26T10:41:20.394Z,67.70
2017-06-26T10:43:48.667Z,67.30
2017-06-26T10:46:16.930Z,67.30
2017-06-26T10:48:44.478Z,67.30
2017-06-26T10:51:11.999Z,66.00
2017-06-26T10:53:39.503Z,65.40
2017-06-26T10:56:07.216Z,63.90
2017-06-26T10:58:34.891Z,64.50
2017-06-26T11:01:02.401Z,65.10
2017-06-26T11:03:30.730Z,64.00
2017-06-26T11:05:58.298Z,64.00
2017-06-26T11:08:25.824Z,61.90
2017-06-26T11:10:53.397Z,58.70
2017-06-26T11:13:20.945Z,58.10
2017-06-26T11:15:48.493Z,56.80
2017-06-26T11:18:16.010Z,57.80
2017-06-26T11:20:43.494Z,56.90
2017-06-26T11:23:11.772Z,58.20
2017-06-26T11:25:40.124Z,58.30
2017-06-26T11:28:07.633Z,57.70
2017-06-26T11:30:35.152Z,57.60
2017-06-26T11:33:02.679Z,57.80
2017-06-26T11:35:30.172Z,57.80
2017-06-26T11:37:57.671Z,58.20
2017-06-26T11:40:25.167Z,58.70
2017-06-26T11:42:52.652Z,59.90
2017-06-26T11:45:20.164Z,60.00
2017-06-26T11:47:47.672Z,60.70
2017-06-26T11:50:15.193Z,60.00
2017-06-26T11:52:42.741Z,57.50
2017-06-26T11:55:10.321Z,56.60
2017-06-26T11:57:37.833Z,56.60
2017-06-26T12:00:06.123Z,55.60
2017-06-26T12:02:33.655Z,55.50
2017-06-26T12:05:01.944Z,54.90
2017-06-26T12:07:30.223Z,54.40
2017-06-26T12:09:58.524Z,54.70
2017-06-26T12:12:26.088Z,54.80
2017-06-26T12:14:53.627Z,54.80
2017-06-26T12:17:21.154Z,54.60
2017-06-26T12:19:48.705Z,53.40
2017-06-26T12:22:16.223Z,52.20
2017-06-26T12:24:43.714Z,50.80
2017-06-26T12:27:11.285Z,47.10
2017-06-26T12:29:38.786Z,47.80
2017-06-26T12:32:06.307Z,44.60
2017-06-26T12:34:33.878Z,40.80
2017-06-26T12:37:01.374Z,39.40
2017-06-26T12:39:28.917Z,40.70
2017-06-26T12:41:56.435Z,42.10
2017-06-26T12:44:23.943Z,43.40
2017-06-26T12:46:51.470Z,42.70
2017-06-26T12:49:19.060Z,43.30
2017-06-26T12:51:46.618Z,44.60
2017-06-26T12:54:14.156Z,44.80
2017-06-26T12:56:42.429Z,45.20
2017-06-26T12:59:09.952Z,45.10
2017-06-26T13:01:37.593Z,45.50
2017-06-26T13:04:05.111Z,46.10
2017-06-26T13:06:33.378Z,46.70
2017-06-26T13:09:00.930Z,46.60
2017-06-26T13:11:28.554Z,46.60
2017-06-26T13:13:56.193Z,45.20
2017-06-26T13:16:23.730Z,44.00
2017-06-26T13:18:51.282Z,42.00
2017-06-26T13:21:19.032Z,40.60
2017-06-26T13:23:46.531Z,39.10
2017-06-26T13:26:14.815Z,38.30
2017-06-26T13:28:42.313Z,38.20
2017-06-26T13:31:09.800Z,36.20
2017-06-26T13:33:37.320Z,38.60
2017-06-26T13:36:04.831Z,41.70
2017-06-26T13:38:33.111Z,37.90
2017-06-26T13:41:01.407Z,35.80
2017-06-26T13:43:29.678Z,35.80
2017-06-26T13:45:57.209Z,35.30
2017-06-26T13:48:24.729Z,30.90
2017-06-26T13:50:52.249Z,27.80
2017-06-26T13:53:20.510Z,28.40
2017-06-26T13:55:48.763Z,31.30
2017-06-26T13:58:16.309Z,30.90
2017-06-26T14:03:17.688Z,36.10
2017-06-26T14:05:45.267Z,39.60
2017-06-26T14:08:12.768Z,40.80
2017-06-26T14:10:40.295Z,42.00
2017-06-26T14:13:08.599Z,43.40
2017-06-26T14:15:36.109Z,43.30
2017-06-26T14:18:03.627Z,42.70
2017-06-26T14:20:31.179Z,42.70
2017-06-26T14:22:58.686Z,42.90
2017-06-26T14:25:26.201Z,44.30
2017-06-26T14:27:53.728Z,45.00
2017-06-26T14:30:21.995Z,47.50
2017-06-26T14:32:49.606Z,46.90
2017-06-26T14:35:17.163Z,48.10
2017-06-26T14:37:44.663Z,47.70
2017-06-26T14:40:12.197Z,47.30
2017-06-26T14:42:39.738Z,48.00
2017-06-26T14:45:07.266Z,48.90
2017-06-26T14:47:34.869Z,48.90
2017-06-26T14:50:02.405Z,49.00
2017-06-26T14:52:29.915Z,49.20
2017-06-26T14:54:57.437Z,50.20
2017-06-26T14:57:25.102Z,50.80
2017-06-26T14:59:52.615Z,51.10
2017-06-26T15:02:21.434Z,50.50
2017-06-26T15:04:49.006Z,50.30
2017-06-26T15:07:16.555Z,51.20
2017-06-26T15:09:44.102Z,51.50
2017-06-26T15:12:12.355Z,52.20
2017-06-26T15:14:39.861Z,52.20
2017-06-26T15:17:07.374Z,51.70
2017-06-26T15:19:34.881Z,52.10
2017-06-26T15:22:02.396Z,52.00
2017-06-26T15:24:29.925Z,51.90
2017-06-26T15:26:57.432Z,50.10
2017-06-26T15:29:25.724Z,49.20
2017-06-26T15:31:53.228Z,49.20
2017-06-26T15:34:20.742Z,48.50
2017-06-26T15:36:48.276Z,48.40
2017-06-26T15:39:16.541Z,47.80
2017-06-26T15:41:44.077Z,47.10
2017-06-26T15:44:11.628Z,46.80
2017-06-26T15:46:39.122Z,46.00
2017-06-26T15:49:07.381Z,44.70
2017-06-26T15:51:34.907Z,44.70
2017-06-26T15:54:02.412Z,42.60
2017-06-26T15:56:29.978Z,41.30
2017-06-26T15:58:58.313Z,43.70
2017-06-26T16:01:25.822Z,43.20
2017-06-26T16:03:54.100Z,43.10
2017-06-26T16:06:22.451Z,43.00
2017-06-26T16:08:49.963Z,42.90
2017-06-26T16:11:17.460Z,43.20
2017-06-26T16:13:45.023Z,41.80
2017-06-26T16:16:12.574Z,40.10
2017-06-26T16:18:40.097Z,38.70
2017-06-26T16:21:07.647Z,38.00
2017-06-26T16:23:35.984Z,37.70
2017-06-26T16:26:03.507Z,37.60
2017-06-26T16:28:31.081Z,38.30
2017-06-26T16:30:58.592Z,36.90
2017-06-26T16:33:26.860Z,34.40
2017-06-26T16:35:55.183Z,35.50
2017-06-26T16:38:22.703Z,35.50
2017-06-26T16:40:50.213Z,38.30
2017-06-26T16:43:17.761Z,40.10
2017-06-26T16:45:45.276Z,40.60
2017-06-26T16:48:13.546Z,43.30
2017-06-26T16:50:41.834Z,41.00
2017-06-26T16:53:10.444Z,42.00
2017-06-26T16:55:37.954Z,41.90
2017-06-26T16:58:05.675Z,40.60
2017-06-26T17:00:33.308Z,40.70
2017-06-26T17:03:00.901Z,40.10
2017-06-26T17:05:28.450Z,38.60
2017-06-26T17:07:55.948Z,38.50
2017-06-26T17:10:23.480Z,40.00
2017-06-26T17:12:50.978Z,41.40
2017-06-26T17:15:18.487Z,42.60
2017-06-26T17:17:45.987Z,44.40
2017-06-26T17:20:13.519Z,43.30
2017-06-26T17:22:41.035Z,43.00
2017-06-26T17:25:09.308Z,41.30
2017-06-26T17:27:37.606Z,38.80
2017-06-26T17:30:05.099Z,38.70
2017-06-26T17:32:32.622Z,37.90
2017-06-26T17:35:00.921Z,42.00
2017-06-26T17:37:28.449Z,42.00
2017-06-26T17:39:55.962Z,45.70
2017-06-26T17:42:23.472Z,47.60
2017-06-26T17:44:50.986Z,48.70
2017-06-26T17:47:18.472Z,48.70
2017-06-26T17:49:46.754Z,49.50
2017-06-26T17:52:15.034Z,48.90
2017-06-26T17:54:43.749Z,50.10
2017-06-26T17:57:11.311Z,49.90
2017-06-26T17:59:38.851Z,50.00
2017-06-26T18:02:07.113Z,50.30
2017-06-26T18:04:35.407Z,51.00
2017-06-26T18:07:03.693Z,51.50
2017-06-26T18:09:31.202Z,51.40
2017-06-26T18:11:58.728Z,51.10
2017-06-26T18:14:26.265Z,52.50
2017-06-26T18:16:54.516Z,51.60
2017-06-26T18:19:22.790Z,52.90
2017-06-26T18:21:50.308Z,52.30
2017-06-26T18:24:17.865Z,50.00
2017-06-26T18:26:45.616Z,49.80
2017-06-26T18:29:13.130Z,51.20
2017-06-26T18:31:40.670Z,52.60
2017-06-26T18:34:08.183Z,54.00
2017-06-26T18:36:36.013Z,54.10
2017-06-26T18:39:04.768Z,54.80
2017-06-26T18:41:32.266Z,55.20
2017-06-26T18:44:00.552Z,54.90
2017-06-26T18:46:28.866Z,54.90
2017-06-26T18:48:58.631Z,54.80
2017-06-26T18:51:26.956Z,55.50
2017-06-26T18:53:54.488Z,55.50
2017-06-26T18:56:22.765Z,56.60
2017-06-26T18:58:50.371Z,56.50
2017-06-26T19:01:17.878Z,57.00
2017-06-26T19:03:46.202Z,57.70
2017-06-26T19:06:13.835Z,57.70
2017-06-26T19:08:41.337Z,57.90
2017-06-26T19:11:08.847Z,58.80
2017-06-26T19:13:37.228Z,59.80
2017-06-26T19:16:04.782Z,60.60
2017-06-26T19:18:32.336Z,61.10
2017-06-26T19:21:00.771Z,62.30
2017-06-26T19:23:28.268Z,63.30
2017-06-26T19:25:55.787Z,63.90
2017-06-26T19:28:23.327Z,63.90
2017-06-26T19:30:50.889Z,64.30
2017-06-26T19:33:18.386Z,65.20
2017-06-26T19:35:45.926Z,66.40
2017-06-26T19:38:13.457Z,65.70
2017-06-26T19:40:41.332Z,66.40
2017-06-26T19:43:08.872Z,66.40
2017-06-26T19:45:36.385Z,66.40
2017-06-26T19:48:04.877Z,67.00
2017-06-26T19:50:32.502Z,67.10
2017-06-26T19:53:00.007Z,67.50
2017-06-26T19:55:27.499Z,67.50
2017-06-26T19:57:55.048Z,67.70
2017-06-26T20:00:23.287Z,68.30
2017-06-26T20:02:50.806Z,68.30
2017-06-26T20:05:18.325Z,69.00
2017-06-26T20:07:45.819Z,69.50
2017-06-26T20:10:13.338Z,70.30
2017-06-26T20:12:41.637Z,71.50
2017-06-26T20:15:09.131Z,71.50
2017-06-26T20:17:36.662Z,72.00
2017-06-26T20:20:04.200Z,72.60
2017-06-26T20:22:31.756Z,72.60
2017-06-26T20:24:59.284Z,73.10
2017-06-26T20:27:26.863Z,73.60
2017-06-26T20:29:54.351Z,73.90
2017-06-26T20:32:21.832Z,73.90
2017-06-26T20:34:49.415Z,74.20
2017-06-26T20:37:16.931Z,74.70
2017-06-26T20:39:44.422Z,75.20
2017-06-26T20:42:12.544Z,75.50
2017-06-26T20:44:40.055Z,75.70
2017-06-26T20:47:07.563Z,76.00
2017-06-26T20:49:35.095Z,76.00
2017-06-26T20:52:02.601Z,76.00
2017-06-26T20:54:30.139Z,75.80
2017-06-26T20:56:58.415Z,75.40
2017-06-26T20:59:26.699Z,75.50
2017-06-26T21:01:55.095Z,75.30
2017-06-26T21:04:22.597Z,75.20
2017-06-26T21:06:50.162Z,75.20
2017-06-26T21:09:17.690Z,75.20
2017-06-26T21:11:45.180Z,75.30
2017-06-26T21:14:12.667Z,75.60
2017-06-26T21:16:40.205Z,75.30
2017-06-26T21:19:07.700Z,75.40
2017-06-26T21:21:35.973Z,75.80
2017-06-26T21:24:03.599Z,75.70
2017-06-26T21:26:31.092Z,75.90
2017-06-26T21:28:58.603Z,75.90
2017-06-26T21:31:26.117Z,75.90
2017-06-26T21:33:53.615Z,76.20
2017-06-26T21:36:21.121Z,76.10
2017-06-26T21:38:48.666Z,75.80
2017-06-26T21:41:16.153Z,76.30
2017-06-26T21:43:43.671Z,76.40
2017-06-26T21:46:11.213Z,77.00
2017-06-26T21:48:38.704Z,77.40
2017-06-26T21:51:06.186Z,77.30
2017-06-26T21:53:33.770Z,77.20
2017-06-26T21:56:01.276Z,77.50
2017-06-26T21:58:28.772Z,77.50
2017-06-26T22:00:56.291Z,77.20
2017-06-26T22:03:23.822Z,77.50
2017-06-26T22:05:51.336Z,77.90
2017-06-26T22:08:19.626Z,79.00
2017-06-26T22:10:47.150Z,79.00
2017-06-26T22:13:14.621Z,78.80
2017-06-26T22:15:42.159Z,78.90
2017-06-26T22:18:09.663Z,79.10
2017-06-26T22:20:37.153Z,79.50
2017-06-26T22:23:04.707Z,80.00
2017-06-26T22:25:32.287Z,80.00
2017-06-26T22:27:59.822Z,79.40
2017-06-26T22:30:27.486Z,79.10
2017-06-26T22:32:54.974Z,79.20
2017-06-26T22:35:22.466Z,79.20
2017-06-26T22:37:50.264Z,79.10
2017-06-26T22:40:18.679Z,79.20
2017-06-26T22:42:46.163Z,79.50
2017-06-26T22:45:13.698Z,79.90
2017-06-26T22:47:41.200Z,80.00
2017-06-26T22:50:08.694Z,79.80
2017-06-26T22:52:36.201Z,80.20
2017-06-26T22:55:03.716Z,80.20
2017-06-26T22:57:31.235Z,80.40
2017-06-26T22:59:58.825Z,80.40
2017-06-26T23:02:26.333Z,80.40
2017-06-26T23:04:53.919Z,80.50
2017-06-26T23:07:21.439Z,80.50
2017-06-26T23:09:48.940Z,80.40
2017-06-26T23:12:16.500Z,80.60
2017-06-26T23:14:44.040Z,80.50
2017-06-26T23:17:11.538Z,80.60
2017-06-26T23:19:39.622Z,80.90
2017-06-26T23:22:07.149Z,81.10
2017-06-26T23:24:34.638Z,80.90
2017-06-26T23:27:02.150Z,81.50
2017-06-26T23:29:30.430Z,81.60
2017-06-26T23:31:57.934Z,81.40
2017-06-26T23:34:25.440Z,81.30
2017-06-26T23:36:53.048Z,81.00
2017-06-26T23:39:20.706Z,81.60
2017-06-26T23:41:48.212Z,82.20
2017-06-26T23:44:15.793Z,82.20
2017-06-26T23:46:43.293Z,82.30
2017-06-26T23:49:10.802Z,82.40
2017-06-26T23:51:38.349Z,82.50
2017-06-26T23:54:05.828Z,82.80
2017-06-26T23:56:33.466Z,82.90
2017-06-26T23:59:00.985Z,83.00
